createdAt,value
2018-01-25T00:00:07.586Z,8.37
2018-01-25T00:02:33.869Z,7.13
2018-01-25T00:05:00.136Z,8.40
2018-01-25T00:07:26.485Z,8.07
2018-01-25T00:09:52.772Z,7.60
2018-01-25T00:12:19.071Z,7.90
2018-01-25T00:14:46.156Z,7.80
2018-01-25T00:17:12.515Z,7.60
2018-01-25T00:19:38.854Z,7.63
2018-01-25T00:22:05.886Z,6.80
2018-01-25T00:24:32.193Z,7.20
2018-01-25T00:26:58.513Z,7.97
2018-01-25T00:29:24.803Z,7.43
2018-01-25T00:31:51.842Z,7.67
2018-01-25T00:34:18.865Z,7.20
2018-01-25T00:36:45.172Z,7.00
2018-01-25T00:39:11.561Z,7.30
2018-01-25T00:41:38.582Z,7.30
2018-01-25T00:44:04.879Z,7.10
2018-01-25T00:46:31.181Z,6.70
2018-01-25T00:48:58.225Z,6.70
2018-01-25T00:51:24.502Z,6.10
2018-01-25T00:53:50.818Z,6.43
2018-01-25T00:56:17.100Z,6.10
2018-01-25T00:58:44.103Z,6.30
2018-01-25T01:01:10.425Z,6.93
2018-01-25T01:03:36.737Z,6.67
2018-01-25T01:06:03.048Z,5.60
2018-01-25T01:08:29.340Z,5.10
2018-01-25T01:10:55.665Z,6.23
2018-01-25T01:13:22.080Z,6.30
2018-01-25T01:15:48.436Z,5.10
2018-01-25T01:18:14.734Z,4.97
2018-01-25T01:20:41.098Z,5.53
2018-01-25T01:23:07.370Z,4.80
2018-01-25T01:25:33.671Z,5.10
2018-01-25T01:28:00.800Z,5.33
2018-01-25T01:30:27.089Z,5.00
2018-01-25T01:32:53.363Z,4.90
2018-01-25T01:35:19.656Z,4.90
2018-01-25T01:37:45.961Z,4.60
2018-01-25T01:40:12.230Z,4.57
2018-01-25T01:42:38.524Z,4.50
2018-01-25T01:45:04.788Z,4.37
2018-01-25T01:47:31.076Z,4.07
2018-01-25T01:49:57.397Z,4.50
2018-01-25T01:52:23.738Z,4.47
2018-01-25T01:54:49.997Z,3.93
2018-01-25T01:57:16.298Z,4.53
2018-01-25T01:59:42.706Z,4.07
2018-01-25T02:02:09.717Z,4.00
2018-01-25T02:04:35.997Z,3.97
2018-01-25T02:07:02.292Z,3.93
2018-01-25T02:09:28.647Z,4.00
2018-01-25T02:11:55.653Z,4.33
2018-01-25T02:14:21.925Z,4.23
2018-01-25T02:16:49.012Z,4.10
2018-01-25T02:19:15.322Z,4.70
2018-01-25T02:21:41.604Z,3.97
2018-01-25T02:24:07.898Z,3.60
2018-01-25T02:26:34.145Z,3.90
2018-01-25T02:29:00.436Z,3.40
2018-01-25T02:31:26.746Z,4.17
2018-01-25T02:33:53.793Z,3.87
2018-01-25T02:36:20.013Z,3.73
2018-01-25T02:38:47.057Z,3.60
2018-01-25T02:41:14.030Z,3.80
2018-01-25T02:43:40.263Z,3.60
2018-01-25T02:46:06.563Z,3.10
2018-01-25T02:48:33.574Z,3.00
2018-01-25T02:50:59.907Z,2.80
2018-01-25T02:53:26.169Z,2.87
2018-01-25T02:55:53.185Z,3.27
2018-01-25T02:58:19.414Z,2.97
2018-01-25T03:00:45.698Z,3.00
2018-01-25T03:03:11.947Z,2.90
2018-01-25T03:05:38.198Z,2.97
2018-01-25T03:08:04.428Z,2.43
2018-01-25T03:10:30.733Z,2.87
2018-01-25T03:12:56.966Z,2.33
2018-01-25T03:15:23.218Z,2.33
2018-01-25T03:17:50.221Z,2.43
2018-01-25T03:20:16.482Z,2.43
2018-01-25T03:22:42.753Z,2.53
2018-01-25T03:25:09.721Z,2.40
2018-01-25T03:27:36.015Z,2.67
2018-01-25T03:30:03.046Z,3.20
2018-01-25T03:32:29.327Z,2.50
2018-01-25T03:34:55.567Z,2.60
2018-01-25T03:37:21.878Z,2.60
2018-01-25T03:39:48.139Z,2.50
2018-01-25T03:42:14.374Z,2.07
2018-01-25T03:44:40.648Z,2.07
2018-01-25T03:47:06.913Z,2.17
2018-01-25T03:49:33.168Z,3.40
2018-01-25T03:51:59.413Z,2.00
2018-01-25T03:54:26.383Z,2.37
2018-01-25T03:56:53.365Z,2.37
2018-01-25T03:59:19.618Z,2.37
2018-01-25T04:01:45.885Z,2.20
2018-01-25T04:04:12.136Z,1.90
2018-01-25T04:06:38.368Z,2.50
2018-01-25T04:09:04.669Z,2.60
2018-01-25T04:11:31.629Z,2.50
2018-01-25T04:13:57.907Z,2.40
2018-01-25T04:16:24.171Z,2.60
2018-01-25T04:18:50.450Z,2.40
2018-01-25T04:21:16.673Z,2.30
2018-01-25T04:23:43.713Z,2.53
2018-01-25T04:26:09.953Z,2.37
2018-01-25T04:28:36.204Z,2.70
2018-01-25T04:31:02.466Z,2.43
2018-01-25T04:33:28.867Z,2.40
2018-01-25T04:35:55.086Z,2.63
2018-01-25T04:38:21.293Z,2.87
2018-01-25T04:40:48.323Z,2.57
2018-01-25T04:43:14.593Z,2.57
2018-01-25T04:45:40.884Z,2.70
2018-01-25T04:48:07.129Z,2.57
2018-01-25T04:50:33.403Z,2.87
2018-01-25T04:53:00.390Z,3.37
2018-01-25T04:55:26.664Z,2.80
2018-01-25T04:57:53.705Z,2.77
2018-01-25T05:00:20.772Z,3.07
2018-01-25T05:02:47.018Z,2.80
2018-01-25T05:05:13.291Z,2.40
2018-01-25T05:07:39.524Z,3.43
2018-01-25T05:10:05.839Z,3.10
2018-01-25T05:12:32.848Z,3.67
2018-01-25T05:14:59.089Z,3.30
2018-01-25T05:17:38.110Z,3.13
2018-01-25T05:20:04.425Z,3.10
2018-01-25T05:22:31.441Z,3.00
2018-01-25T05:24:57.695Z,2.93
2018-01-25T05:27:24.715Z,3.10
2018-01-25T05:29:51.046Z,2.90
2018-01-25T05:32:18.098Z,3.00
2018-01-25T05:34:45.074Z,3.23
2018-01-25T05:37:11.421Z,3.17
2018-01-25T05:39:37.657Z,3.17
2018-01-25T05:42:03.902Z,3.70
2018-01-25T05:44:30.133Z,3.10
2018-01-25T05:46:56.429Z,2.60
2018-01-25T05:49:22.659Z,3.13
2018-01-25T05:51:48.895Z,3.00
2018-01-25T05:54:15.143Z,2.67
2018-01-25T05:56:41.456Z,2.97
2018-01-25T05:59:07.715Z,2.43
2018-01-25T06:01:33.955Z,2.80
2018-01-25T06:04:01.075Z,2.90
2018-01-25T06:06:27.325Z,2.90
2018-01-25T06:08:54.416Z,2.70
2018-01-25T06:11:20.684Z,2.53
2018-01-25T06:13:46.946Z,2.50
2018-01-25T06:16:13.967Z,3.07
2018-01-25T06:18:40.269Z,2.57
2018-01-25T06:21:06.474Z,2.90
2018-01-25T06:23:32.718Z,3.30
2018-01-25T06:25:58.942Z,3.00
2018-01-25T06:28:25.199Z,3.23
2018-01-25T06:30:51.453Z,3.00
2018-01-25T06:33:18.446Z,3.60
2018-01-25T06:35:44.743Z,2.87
2018-01-25T06:38:11.712Z,2.30
2018-01-25T06:40:37.997Z,2.50
2018-01-25T06:43:04.973Z,2.10
2018-01-25T06:45:31.926Z,2.80
2018-01-25T06:47:59.050Z,2.80
2018-01-25T06:50:25.366Z,2.57
2018-01-25T06:52:51.658Z,2.60
2018-01-25T06:55:17.940Z,2.13
2018-01-25T06:57:44.965Z,2.80
2018-01-25T07:00:11.990Z,2.97
2018-01-25T07:02:38.244Z,2.27
2018-01-25T07:05:04.474Z,2.47
2018-01-25T07:07:38.511Z,2.83
2018-01-25T07:10:04.781Z,2.60
2018-01-25T07:12:31.070Z,3.30
2018-01-25T07:14:58.116Z,3.03
2018-01-25T07:17:24.442Z,2.70
2018-01-25T07:19:50.706Z,2.70
2018-01-25T07:22:16.994Z,3.27
2018-01-25T07:24:43.261Z,2.73
2018-01-25T07:27:09.598Z,2.77
2018-01-25T07:29:36.033Z,3.20
2018-01-25T07:32:02.294Z,3.10
2018-01-25T07:34:29.300Z,3.77
2018-01-25T07:36:55.543Z,3.07
2018-01-25T07:39:21.795Z,4.23
2018-01-25T07:41:48.871Z,3.20
2018-01-25T07:44:15.221Z,2.77
2018-01-25T07:46:41.517Z,2.60
2018-01-25T07:49:08.671Z,2.30
2018-01-25T07:51:35.665Z,2.10
2018-01-25T07:54:01.978Z,2.00
2018-01-25T07:56:28.282Z,1.73
2018-01-25T07:58:54.588Z,1.60
2018-01-25T08:01:20.916Z,1.43
2018-01-25T08:03:47.196Z,2.33
2018-01-25T08:06:13.478Z,1.90
2018-01-25T08:08:39.774Z,1.87
2018-01-25T08:11:06.115Z,2.00
2018-01-25T08:13:38.343Z,2.50
2018-01-25T08:16:10.921Z,2.60
2018-01-25T08:18:37.233Z,1.90
2018-01-25T08:21:03.508Z,2.43
2018-01-25T08:23:29.813Z,2.80
2018-01-25T08:25:56.195Z,3.57
2018-01-25T08:28:22.590Z,3.50
2018-01-25T08:30:49.019Z,4.03
2018-01-25T08:33:15.347Z,4.00
2018-01-25T08:35:41.682Z,3.10
2018-01-25T08:38:07.939Z,2.47
2018-01-25T08:40:34.311Z,3.50
2018-01-25T08:43:00.590Z,2.63
2018-01-25T08:45:26.942Z,2.40
2018-01-25T08:47:54.063Z,2.67
2018-01-25T08:50:21.206Z,2.00
2018-01-25T08:52:47.548Z,1.97
2018-01-25T08:55:13.980Z,3.40
2018-01-25T08:57:40.595Z,1.90
2018-01-25T09:00:06.898Z,2.10
2018-01-25T09:02:33.225Z,2.37
2018-01-25T09:05:01.104Z,2.10
2018-01-25T09:07:28.224Z,1.97
2018-01-25T09:09:54.506Z,2.00
2018-01-25T09:12:20.833Z,1.33
2018-01-25T09:14:48.004Z,1.50
2018-01-25T09:17:14.296Z,1.57
2018-01-25T09:19:40.605Z,2.57
2018-01-25T09:22:07.007Z,3.13
2018-01-25T09:24:34.017Z,2.80
2018-01-25T09:27:00.419Z,2.70
2018-01-25T09:29:26.770Z,1.50
2018-01-25T09:31:53.870Z,1.77
2018-01-25T09:34:20.367Z,1.60
2018-01-25T09:36:46.677Z,2.20
2018-01-25T09:39:17.465Z,3.10
2018-01-25T09:41:43.736Z,2.40
2018-01-25T09:44:10.080Z,2.20
2018-01-25T09:46:36.435Z,2.00
2018-01-25T09:49:02.813Z,2.40
2018-01-25T09:51:29.098Z,2.60
2018-01-25T09:54:02.258Z,2.60
2018-01-25T09:56:28.583Z,2.00
2018-01-25T09:58:54.894Z,2.37
2018-01-25T10:01:21.242Z,2.37
2018-01-25T10:03:47.526Z,2.50
2018-01-25T10:06:13.813Z,1.70
2018-01-25T10:08:40.133Z,1.83
2018-01-25T10:11:06.418Z,2.50
2018-01-25T10:13:32.717Z,1.73
2018-01-25T10:15:59.022Z,2.10
2018-01-25T10:18:25.290Z,2.60
2018-01-25T10:20:52.726Z,2.80
2018-01-25T10:23:19.322Z,2.50
2018-01-25T10:25:45.625Z,2.60
2018-01-25T10:28:11.858Z,2.80
2018-01-25T10:30:38.390Z,2.80
2018-01-25T10:33:05.369Z,2.30
2018-01-25T10:35:39.235Z,2.70
2018-01-25T10:38:15.577Z,2.97
2018-01-25T10:40:43.054Z,5.50
2018-01-25T10:43:09.472Z,3.57
2018-01-25T10:45:35.794Z,2.40
2018-01-25T10:48:02.257Z,2.30
2018-01-25T10:50:28.898Z,2.90
2018-01-25T10:52:55.255Z,3.17
2018-01-25T10:55:21.565Z,2.93
2018-01-25T10:57:48.639Z,4.90
2018-01-25T11:00:14.938Z,3.60
2018-01-25T11:02:41.328Z,2.77
2018-01-25T11:05:07.583Z,4.50
2018-01-25T11:07:33.900Z,1.93
2018-01-25T11:10:00.196Z,2.20
2018-01-25T11:12:26.565Z,2.83
2018-01-25T11:14:53.048Z,2.07
2018-01-25T11:17:21.752Z,2.57
2018-01-25T11:19:49.175Z,2.43
2018-01-25T11:22:15.535Z,4.70
2018-01-25T11:24:41.827Z,10.17
2018-01-25T11:27:09.984Z,7.47
2018-01-25T11:29:36.373Z,9.07
2018-01-25T11:32:02.721Z,3.93
2018-01-25T11:34:29.011Z,2.40
2018-01-25T11:36:55.586Z,3.00
2018-01-25T11:39:22.249Z,2.20
2018-01-25T11:41:48.601Z,2.00
2018-01-25T11:44:15.082Z,2.30
2018-01-25T11:46:41.626Z,2.47
2018-01-25T11:49:08.146Z,3.00
2018-01-25T11:51:34.462Z,3.23
2018-01-25T11:54:00.751Z,3.17
2018-01-25T11:56:31.396Z,3.20
2018-01-25T11:58:57.761Z,2.90
2018-01-25T12:01:25.051Z,3.20
2018-01-25T12:03:51.959Z,2.50
2018-01-25T12:06:19.038Z,1.63
2018-01-25T12:11:18.515Z,2.00
2018-01-25T12:13:44.825Z,1.60
2018-01-25T12:16:11.821Z,2.20
2018-01-25T12:18:38.126Z,3.17
2018-01-25T12:21:04.514Z,3.40
2018-01-25T12:23:31.939Z,4.13
2018-01-25T12:25:58.285Z,2.63
2018-01-25T12:28:26.428Z,2.20
2018-01-25T12:30:52.744Z,1.83
2018-01-25T12:33:19.025Z,1.67
2018-01-25T12:35:45.318Z,1.97
2018-01-25T12:38:11.723Z,1.70
2018-01-25T12:40:38.004Z,1.50
2018-01-25T12:43:04.318Z,1.63
2018-01-25T12:45:31.610Z,3.53
2018-01-25T12:47:57.978Z,7.50
2018-01-25T12:50:24.220Z,3.13
2018-01-25T12:52:50.619Z,3.57
2018-01-25T12:55:16.970Z,2.33
2018-01-25T12:57:43.259Z,3.30
2018-01-25T13:00:09.670Z,2.17
2018-01-25T13:02:35.941Z,2.00
2018-01-25T13:05:02.264Z,2.40
2018-01-25T13:07:29.245Z,2.13
2018-01-25T13:09:58.434Z,2.00
2018-01-25T13:12:25.069Z,2.70
2018-01-25T13:14:51.305Z,4.93
2018-01-25T13:17:17.620Z,3.17
2018-01-25T13:19:43.927Z,4.80
2018-01-25T13:22:10.946Z,2.67
2018-01-25T13:24:37.208Z,2.23
2018-01-25T13:27:04.187Z,2.57
2018-01-25T13:29:30.446Z,2.50
2018-01-25T13:31:56.698Z,2.07
2018-01-25T13:34:23.790Z,2.73
2018-01-25T13:36:50.038Z,1.77
2018-01-25T13:39:18.278Z,2.27
2018-01-25T13:42:14.308Z,4.17
2018-01-25T13:44:41.431Z,3.33
2018-01-25T13:47:09.523Z,8.47
2018-01-25T13:49:35.773Z,4.60
2018-01-25T13:52:07.946Z,5.67
2018-01-25T13:54:37.446Z,4.40
2018-01-25T13:57:04.540Z,3.90
2018-01-25T13:59:31.567Z,3.40
2018-01-25T14:01:57.876Z,2.73
2018-01-25T14:04:24.105Z,2.50
2018-01-25T14:06:50.348Z,3.03
2018-01-25T14:09:16.634Z,3.00
2018-01-25T14:11:42.894Z,3.70
2018-01-25T14:14:09.738Z,3.33
2018-01-25T14:16:36.344Z,3.40
2018-01-25T14:19:02.681Z,3.53
2018-01-25T14:21:29.006Z,3.93
2018-01-25T14:23:55.263Z,2.90
2018-01-25T14:26:21.569Z,3.87
2018-01-25T14:28:47.858Z,3.50
2018-01-25T14:31:14.948Z,3.37
2018-01-25T14:33:41.176Z,5.00
2018-01-25T14:36:09.680Z,4.40
2018-01-25T14:38:36.118Z,4.43
2018-01-25T14:41:02.397Z,4.33
2018-01-25T14:43:29.162Z,4.63
2018-01-25T14:45:55.499Z,5.80
2018-01-25T14:48:33.648Z,6.80
2018-01-25T14:51:01.805Z,5.23
2018-01-25T14:53:31.804Z,5.17
2018-01-25T14:55:58.966Z,4.50
2018-01-25T14:58:25.542Z,5.00
2018-01-25T15:00:51.851Z,4.40
2018-01-25T15:03:18.206Z,5.10
2018-01-25T15:05:44.656Z,4.90
2018-01-25T15:08:11.428Z,4.23
2018-01-25T15:10:37.745Z,4.00
2018-01-25T15:13:05.661Z,4.07
2018-01-25T15:15:31.993Z,4.50
2018-01-25T15:18:02.021Z,4.50
2018-01-25T15:20:31.451Z,3.50
2018-01-25T15:22:58.071Z,3.63
2018-01-25T15:25:30.550Z,3.90
2018-01-25T15:27:57.072Z,3.93
2018-01-25T15:30:23.390Z,2.93
2018-01-25T15:32:49.677Z,3.47
2018-01-25T15:35:18.353Z,4.20
2018-01-25T15:37:44.644Z,11.80
2018-01-25T15:40:10.940Z,10.30
2018-01-25T15:42:37.183Z,6.40
2018-01-25T15:45:03.591Z,6.70
2018-01-25T15:47:31.818Z,6.17
2018-01-25T15:49:58.389Z,5.63
2018-01-25T15:52:24.734Z,5.60
2018-01-25T15:54:55.312Z,5.90
2018-01-25T15:57:22.854Z,6.53
2018-01-25T15:59:50.695Z,7.10
2018-01-25T16:02:20.637Z,6.40
2018-01-25T16:04:58.530Z,6.70
2018-01-25T16:07:30.908Z,5.60
2018-01-25T16:10:08.191Z,6.27
2018-01-25T16:12:36.201Z,6.00
2018-01-25T16:15:02.550Z,6.30
2018-01-25T16:17:29.339Z,5.70
2018-01-25T16:19:55.848Z,6.87
2018-01-25T16:22:26.518Z,5.90
2018-01-25T16:24:52.911Z,5.70
2018-01-25T16:27:19.274Z,6.07
2018-01-25T16:29:48.982Z,6.20
2018-01-25T16:32:20.252Z,5.47
2018-01-25T16:34:47.989Z,5.60
2018-01-25T16:37:33.803Z,6.03
2018-01-25T16:40:09.939Z,5.90
2018-01-25T16:42:36.254Z,5.20
2018-01-25T16:45:03.509Z,5.60
2018-01-25T16:47:30.922Z,5.90
2018-01-25T16:49:58.333Z,5.17
2018-01-25T16:52:24.605Z,6.03
2018-01-25T16:54:50.961Z,6.13
2018-01-25T16:57:19.032Z,4.70
2018-01-25T16:59:46.993Z,5.53
2018-01-25T17:02:16.016Z,5.37
2018-01-25T17:04:42.295Z,5.80
2018-01-25T17:07:08.652Z,5.27
2018-01-25T17:09:36.147Z,6.50
2018-01-25T17:12:05.520Z,6.73
2018-01-25T17:14:32.122Z,8.17
2018-01-25T17:16:58.401Z,7.90
2018-01-25T17:19:24.762Z,7.97
2018-01-25T17:21:51.012Z,7.10
2018-01-25T17:24:17.362Z,7.53
2018-01-25T17:26:44.506Z,6.07
2018-01-25T17:29:11.157Z,5.40
2018-01-25T17:31:37.561Z,6.40
2018-01-25T17:34:04.065Z,6.50
2018-01-25T17:36:31.059Z,8.87
2018-01-25T17:38:57.935Z,7.53
2018-01-25T17:41:24.325Z,5.50
2018-01-25T17:43:50.558Z,6.30
2018-01-25T17:46:16.917Z,5.57
2018-01-25T17:48:45.002Z,5.93
2018-01-25T17:51:11.217Z,6.20
2018-01-25T17:53:38.294Z,8.03
2018-01-25T17:56:07.260Z,7.90
2018-01-25T17:58:34.571Z,7.77
2018-01-25T18:01:01.077Z,7.13
2018-01-25T18:03:27.381Z,6.10
2018-01-25T18:05:53.734Z,6.23
2018-01-25T18:08:19.990Z,5.53
2018-01-25T18:10:48.313Z,5.80
2018-01-25T18:13:15.364Z,7.03
2018-01-25T18:15:45.592Z,6.20
2018-01-25T18:18:17.996Z,6.10
2018-01-25T18:20:48.757Z,5.37
2018-01-25T18:23:19.019Z,6.63
2018-01-25T18:25:45.933Z,6.30
2018-01-25T18:28:15.371Z,6.37
2018-01-25T18:30:44.961Z,6.30
2018-01-25T18:33:15.353Z,6.77
2018-01-25T18:35:41.969Z,6.40
2018-01-25T18:38:09.885Z,7.20
2018-01-25T18:40:36.949Z,7.80
2018-01-25T18:43:06.601Z,6.70
2018-01-25T18:45:34.929Z,8.20
2018-01-25T18:48:01.991Z,8.47
2018-01-25T18:50:28.353Z,8.27
2018-01-25T18:52:54.708Z,9.33
2018-01-25T18:55:22.978Z,9.53
2018-01-25T18:57:49.680Z,8.37
2018-01-25T19:00:18.130Z,8.50
2018-01-25T19:02:45.130Z,9.23
2018-01-25T19:05:17.278Z,8.07
2018-01-25T19:07:44.983Z,9.00
2018-01-25T19:10:11.951Z,10.20
2018-01-25T19:12:38.380Z,10.47
2018-01-25T19:15:05.123Z,9.53
2018-01-25T19:17:31.470Z,10.00
2018-01-25T19:19:57.840Z,10.67
2018-01-25T19:22:24.331Z,12.83
2018-01-25T19:24:50.668Z,11.40
2018-01-25T19:27:17.738Z,12.50
2018-01-25T19:29:44.669Z,12.83
2018-01-25T19:32:11.391Z,12.67
2018-01-25T19:34:37.763Z,12.87
2018-01-25T19:37:05.258Z,13.50
2018-01-25T19:39:32.791Z,13.77
2018-01-25T19:42:00.429Z,13.40
2018-01-25T19:44:26.713Z,12.73
2018-01-25T19:46:53.020Z,13.00
2018-01-25T19:49:20.163Z,13.40
2018-01-25T19:51:47.414Z,12.77
2018-01-25T19:54:14.504Z,10.93
2018-01-25T19:56:40.907Z,11.73
2018-01-25T19:59:07.302Z,11.57
2018-01-25T20:01:33.763Z,12.83
2018-01-25T20:04:00.647Z,11.17
2018-01-25T20:06:26.930Z,11.90
2018-01-25T20:08:53.368Z,11.43
2018-01-25T20:11:19.937Z,9.13
2018-01-25T20:13:50.639Z,11.77
2018-01-25T20:16:17.181Z,9.73
2018-01-25T20:18:43.739Z,8.50
2018-01-25T20:21:11.564Z,8.67
2018-01-25T20:23:39.008Z,7.50
2018-01-25T20:26:06.265Z,7.97
2018-01-25T20:28:33.512Z,9.20
2018-01-25T20:31:02.191Z,8.70
2018-01-25T20:33:29.374Z,9.10
2018-01-25T20:35:56.636Z,7.60
2018-01-25T20:38:23.020Z,8.70
2018-01-25T20:40:49.866Z,9.20
2018-01-25T20:43:19.677Z,8.10
2018-01-25T20:45:46.841Z,8.00
2018-01-25T20:48:13.224Z,9.43
2018-01-25T20:50:40.628Z,8.90
2018-01-25T20:53:08.218Z,8.07
2018-01-25T20:55:37.188Z,8.40
2018-01-25T20:58:05.100Z,7.07
2018-01-25T21:00:32.018Z,8.20
2018-01-25T21:05:34.365Z,7.37
2018-01-25T21:08:02.684Z,7.13
2018-01-25T21:10:30.621Z,8.13
2018-01-25T21:12:57.218Z,7.27
2018-01-25T21:15:23.834Z,8.73
2018-01-25T21:17:50.186Z,8.47
2018-01-25T21:20:16.418Z,8.37
2018-01-25T21:22:43.312Z,9.10
2018-01-25T21:25:09.530Z,9.00
2018-01-25T21:27:36.253Z,9.70
2018-01-25T21:30:03.191Z,10.27
2018-01-25T21:32:29.497Z,10.70
2018-01-25T21:37:29.813Z,11.47
2018-01-25T21:39:58.045Z,11.87
2018-01-25T21:42:26.717Z,11.80
2018-01-25T21:44:53.251Z,12.77
2018-01-25T21:47:24.500Z,14.23
2018-01-25T21:49:51.569Z,13.47
2018-01-25T21:52:17.797Z,13.40
2018-01-25T21:54:44.416Z,15.23
2018-01-25T21:57:10.858Z,15.73
2018-01-25T21:59:37.141Z,17.37
2018-01-25T22:02:03.475Z,16.40
2018-01-25T22:04:30.800Z,19.10
2018-01-25T22:07:04.932Z,18.73
2018-01-25T22:09:31.654Z,19.20
2018-01-25T22:11:58.251Z,18.20
2018-01-25T22:14:24.505Z,23.03
2018-01-25T22:16:54.278Z,22.00
2018-01-25T22:19:25.478Z,24.00
2018-01-25T22:21:54.882Z,22.90
2018-01-25T22:24:22.049Z,22.57
2018-01-25T22:26:48.487Z,23.10
2018-01-25T22:29:14.773Z,23.80
2018-01-25T22:31:41.425Z,24.43
2018-01-25T22:34:08.747Z,25.90
2018-01-25T22:36:41.767Z,23.27
2018-01-25T22:39:09.764Z,23.43
2018-01-25T22:41:36.446Z,24.50
2018-01-25T22:44:03.423Z,25.93
2018-01-25T22:46:30.207Z,26.57
2018-01-25T22:48:59.025Z,24.27
2018-01-25T22:51:26.426Z,25.70
2018-01-25T22:53:53.134Z,25.20
2018-01-25T22:56:22.839Z,24.73
2018-01-25T22:58:49.121Z,23.47
2018-01-25T23:01:21.390Z,26.23
2018-01-25T23:03:49.284Z,25.87
2018-01-25T23:06:20.037Z,24.17
2018-01-25T23:08:46.532Z,25.13
2018-01-25T23:11:14.362Z,25.03
2018-01-25T23:13:41.206Z,26.43
2018-01-25T23:16:08.957Z,26.23
2018-01-25T23:18:36.293Z,27.37
2018-01-25T23:21:02.717Z,27.70
2018-01-25T23:23:29.859Z,27.37
2018-01-25T23:25:57.112Z,26.53
2018-01-25T23:28:25.741Z,25.30
2018-01-25T23:30:52.017Z,26.90
2018-01-25T23:33:18.411Z,26.00
2018-01-25T23:35:45.897Z,26.60
2018-01-25T23:38:12.182Z,24.90
2018-01-25T23:40:39.145Z,26.20
2018-01-25T23:43:05.419Z,25.17
2018-01-25T23:45:33.190Z,25.27
2018-01-25T23:48:00.237Z,27.13
2018-01-25T23:50:26.544Z,25.10
2018-01-25T23:52:52.774Z,24.50
2018-01-25T23:55:20.797Z,23.27
2018-01-25T23:57:47.025Z,24.87
